createdAt,value
2023-05-07T00:00:32.157Z,0.50
2023-05-07T00:03:03.218Z,0.90
2023-05-07T00:05:33.876Z,0.70
2023-05-07T00:08:05.027Z,0.68
2023-05-07T00:10:37.923Z,0.50
2023-05-07T00:13:07.483Z,0.60
2023-05-07T00:15:38.101Z,0.63
2023-05-07T00:18:08.052Z,0.57
2023-05-07T00:20:38.276Z,0.68
2023-05-07T00:23:08.563Z,0.80
2023-05-07T00:25:40.990Z,0.77
2023-05-07T00:28:10.940Z,0.70
2023-05-07T00:30:41.500Z,0.70
2023-05-07T00:33:11.439Z,0.70
2023-05-07T00:35:41.447Z,0.80
2023-05-07T00:38:12.136Z,0.52
2023-05-07T00:40:45.925Z,0.85
2023-05-07T00:43:16.629Z,0.70
2023-05-07T00:45:47.177Z,0.82
2023-05-07T00:48:18.766Z,0.80
2023-05-07T00:50:49.787Z,0.80
2023-05-07T00:53:20.037Z,0.80
2023-05-07T00:55:53.398Z,0.80
2023-05-07T00:58:24.746Z,0.77
2023-05-07T01:00:55.104Z,1.30
2023-05-07T01:03:25.414Z,1.35
2023-05-07T01:06:00.526Z,1.40
2023-05-07T01:08:31.807Z,1.55
2023-05-07T01:11:05.420Z,1.83
2023-05-07T01:13:37.116Z,1.80
2023-05-07T01:16:08.847Z,1.90
2023-05-07T01:18:39.435Z,1.58
2023-05-07T01:21:13.986Z,1.88
2023-05-07T01:23:47.515Z,1.67
2023-05-07T01:26:17.750Z,1.80
2023-05-07T01:28:47.855Z,1.63
2023-05-07T01:31:20.044Z,2.10
2023-05-07T01:33:53.722Z,1.60
2023-05-07T01:36:28.542Z,1.85
2023-05-07T01:39:01.990Z,1.50
2023-05-07T01:41:32.546Z,1.88
2023-05-07T01:44:03.887Z,1.65
2023-05-07T01:46:35.803Z,1.95
2023-05-07T01:49:06.642Z,1.88
2023-05-07T01:51:38.141Z,2.17
2023-05-07T01:54:10.205Z,2.00
2023-05-07T01:56:40.821Z,1.90
2023-05-07T01:59:10.797Z,1.80
2023-05-07T02:01:41.057Z,2.28
2023-05-07T02:04:11.290Z,1.98
2023-05-07T02:06:42.035Z,1.92
2023-05-07T02:09:16.550Z,1.90
2023-05-07T02:11:49.237Z,1.58
2023-05-07T02:14:21.788Z,2.00
2023-05-07T02:16:52.424Z,1.52
2023-05-07T02:19:22.863Z,1.65
2023-05-07T02:21:52.979Z,2.08
2023-05-07T02:24:25.171Z,1.67
2023-05-07T02:26:55.438Z,1.50
2023-05-07T02:29:26.453Z,1.70
2023-05-07T02:31:57.076Z,1.50
2023-05-07T02:34:27.501Z,1.65
2023-05-07T02:36:58.171Z,1.80
2023-05-07T02:39:30.484Z,1.73
2023-05-07T02:42:00.679Z,1.48
2023-05-07T02:44:32.823Z,1.40
2023-05-07T02:47:03.128Z,1.70
2023-05-07T02:49:32.878Z,1.70
2023-05-07T02:52:03.660Z,1.80
2023-05-07T02:54:36.765Z,1.58
2023-05-07T02:57:07.655Z,1.90
2023-05-07T02:59:37.959Z,1.60
2023-05-07T03:02:08.500Z,1.80
2023-05-07T03:04:39.036Z,1.63
2023-05-07T03:07:09.820Z,1.80
2023-05-07T03:09:42.254Z,1.83
2023-05-07T03:12:12.606Z,1.60
2023-05-07T03:14:42.982Z,1.67
2023-05-07T03:17:19.698Z,1.88
2023-05-07T03:19:50.075Z,1.85
2023-05-07T03:22:20.708Z,1.63
2023-05-07T03:24:53.135Z,1.73
2023-05-07T03:27:23.516Z,1.90
2023-05-07T03:29:54.041Z,1.35
2023-05-07T03:32:25.450Z,1.60
2023-05-07T03:34:55.921Z,1.67
2023-05-07T03:37:26.062Z,1.77
2023-05-07T03:39:57.931Z,1.55
2023-05-07T03:42:28.887Z,1.90
2023-05-07T03:44:59.311Z,1.60
2023-05-07T03:47:29.873Z,1.45
2023-05-07T03:50:00.871Z,1.60
2023-05-07T03:52:32.400Z,1.30
2023-05-07T03:55:05.027Z,1.58
2023-05-07T03:57:35.942Z,1.35
2023-05-07T04:00:08.223Z,1.35
2023-05-07T04:02:39.241Z,1.50
2023-05-07T04:05:11.268Z,1.25
2023-05-07T04:07:41.918Z,1.58
2023-05-07T04:10:15.407Z,1.30
2023-05-07T04:12:46.117Z,1.48
2023-05-07T04:15:16.735Z,1.50
2023-05-07T04:17:47.625Z,1.38
2023-05-07T04:20:20.598Z,1.40
2023-05-07T04:22:50.911Z,1.17
2023-05-07T04:25:27.937Z,1.20
2023-05-07T04:27:58.320Z,1.10
2023-05-07T04:30:29.230Z,1.38
2023-05-07T04:33:00.522Z,1.08
2023-05-07T04:35:31.255Z,1.40
2023-05-07T04:38:01.460Z,1.20
2023-05-07T04:40:35.560Z,1.08
2023-05-07T04:43:08.203Z,0.90
2023-05-07T04:45:39.477Z,1.00
2023-05-07T04:48:10.355Z,1.20
2023-05-07T04:50:40.554Z,0.88
2023-05-07T04:53:11.219Z,0.98
2023-05-07T04:55:43.937Z,0.90
2023-05-07T04:58:15.250Z,0.88
2023-05-07T05:00:46.686Z,0.90
2023-05-07T05:03:17.568Z,0.93
2023-05-07T05:05:50.164Z,1.00
2023-05-07T05:08:20.860Z,0.93
2023-05-07T05:10:54.761Z,1.08
2023-05-07T05:13:25.974Z,1.00
2023-05-07T05:15:56.664Z,1.00
2023-05-07T05:18:27.777Z,0.90
2023-05-07T05:20:58.804Z,0.90
2023-05-07T05:23:31.284Z,0.80
2023-05-07T05:26:04.145Z,0.88
2023-05-07T05:28:34.312Z,0.90
2023-05-07T05:31:05.259Z,1.00
2023-05-07T05:33:36.191Z,0.77
2023-05-07T05:36:08.021Z,1.23
2023-05-07T05:38:38.820Z,0.95
2023-05-07T05:41:12.379Z,0.70
2023-05-07T05:43:43.883Z,0.77
2023-05-07T05:46:17.061Z,1.00
2023-05-07T05:48:48.343Z,0.88
2023-05-07T05:51:18.090Z,0.85
2023-05-07T05:53:48.215Z,0.80
2023-05-07T05:56:21.183Z,0.80
2023-05-07T05:58:51.723Z,0.88
2023-05-07T06:01:22.856Z,0.77
2023-05-07T06:03:53.096Z,0.98
2023-05-07T06:06:23.921Z,0.65
2023-05-07T06:08:54.333Z,0.82
2023-05-07T06:11:27.207Z,0.77
2023-05-07T06:13:57.667Z,0.80
2023-05-07T06:16:29.359Z,0.88
2023-05-07T06:18:59.302Z,0.85
2023-05-07T06:21:30.028Z,0.65
2023-05-07T06:23:59.960Z,0.80
2023-05-07T06:26:32.152Z,0.90
2023-05-07T06:29:02.449Z,0.57
2023-05-07T06:31:35.274Z,1.05
2023-05-07T06:34:05.245Z,0.82
2023-05-07T06:36:35.723Z,1.20
2023-05-07T06:39:05.920Z,0.75
2023-05-07T06:41:37.544Z,0.95
2023-05-07T06:44:09.880Z,1.00
2023-05-07T06:46:40.027Z,0.80
2023-05-07T06:49:10.194Z,0.82
2023-05-07T06:51:41.234Z,0.70
2023-05-07T06:54:11.932Z,0.65
2023-05-07T06:56:44.301Z,0.52
2023-05-07T06:59:14.729Z,0.98
2023-05-07T07:01:45.071Z,0.93
2023-05-07T07:04:14.726Z,0.70
2023-05-07T07:06:45.185Z,0.65
2023-05-07T07:09:24.036Z,0.75
2023-05-07T07:11:56.902Z,0.82
2023-05-07T07:14:27.556Z,0.60
2023-05-07T07:16:57.949Z,0.80
2023-05-07T07:19:28.590Z,0.80
2023-05-07T07:21:59.005Z,0.70
2023-05-07T07:24:29.484Z,0.88
2023-05-07T07:27:02.044Z,0.80
2023-05-07T07:29:32.436Z,0.63
2023-05-07T07:32:03.196Z,0.70
2023-05-07T07:34:33.525Z,0.80
2023-05-07T07:37:06.685Z,0.50
2023-05-07T07:39:36.619Z,0.60
2023-05-07T07:42:09.214Z,0.75
2023-05-07T07:44:40.949Z,0.70
2023-05-07T07:47:12.156Z,1.10
2023-05-07T07:49:43.014Z,0.80
2023-05-07T07:52:13.746Z,0.80
2023-05-07T07:54:44.325Z,0.70
2023-05-07T07:57:16.522Z,0.73
2023-05-07T07:59:47.300Z,0.98
2023-05-07T08:02:17.714Z,0.80
2023-05-07T08:04:47.766Z,0.80
2023-05-07T08:07:20.265Z,0.70
2023-05-07T08:09:51.276Z,0.75
2023-05-07T08:12:23.885Z,0.70
2023-05-07T08:14:54.873Z,1.00
2023-05-07T08:17:25.545Z,0.80
2023-05-07T08:19:56.139Z,0.80
2023-05-07T08:22:26.832Z,0.75
2023-05-07T08:24:57.312Z,0.70
2023-05-07T08:27:29.436Z,0.93
2023-05-07T08:29:59.523Z,0.82
2023-05-07T08:32:29.924Z,0.80
2023-05-07T08:35:00.339Z,0.95
2023-05-07T08:37:30.239Z,1.00
2023-05-07T08:40:00.842Z,0.85
2023-05-07T08:42:38.821Z,0.70
2023-05-07T08:45:13.541Z,0.82
2023-05-07T08:47:50.013Z,0.85
2023-05-07T08:50:22.188Z,0.73
2023-05-07T08:52:52.678Z,0.90
2023-05-07T08:55:24.505Z,0.70
2023-05-07T08:57:57.568Z,0.80
2023-05-07T09:00:28.338Z,0.60
2023-05-07T09:02:58.407Z,1.00
2023-05-07T09:05:29.094Z,1.02
2023-05-07T09:08:02.170Z,0.85
2023-05-07T09:10:36.873Z,0.90
2023-05-07T09:13:09.408Z,0.70
2023-05-07T09:15:40.070Z,1.20
2023-05-07T09:18:10.230Z,0.90
2023-05-07T09:20:41.222Z,0.98
2023-05-07T09:23:12.712Z,1.15
2023-05-07T09:25:43.158Z,0.98
2023-05-07T09:28:17.048Z,1.20
2023-05-07T09:30:46.937Z,1.05
2023-05-07T09:33:17.653Z,1.13
2023-05-07T09:35:48.538Z,1.42
2023-05-07T09:38:23.287Z,1.50
2023-05-07T09:41:07.326Z,1.33
2023-05-07T09:43:41.070Z,1.30
2023-05-07T09:46:15.411Z,1.17
2023-05-07T09:48:47.316Z,1.50
2023-05-07T09:51:32.693Z,1.40
2023-05-07T09:54:04.869Z,1.10
2023-05-07T09:56:35.904Z,1.08
2023-05-07T09:59:09.765Z,1.00
2023-05-07T10:01:45.784Z,1.15
2023-05-07T10:04:17.892Z,0.82
2023-05-07T10:06:49.570Z,0.90
2023-05-07T10:09:23.802Z,1.10
2023-05-07T10:11:54.786Z,1.00
2023-05-07T10:14:28.402Z,1.00
2023-05-07T10:17:00.414Z,1.02
2023-05-07T10:19:33.383Z,0.73
2023-05-07T10:22:09.208Z,1.00
2023-05-07T10:24:41.133Z,0.85
2023-05-07T10:27:16.632Z,0.70
2023-05-07T10:30:01.317Z,0.80
2023-05-07T10:32:43.316Z,0.95
2023-05-07T10:35:20.740Z,0.82
2023-05-07T10:37:52.364Z,1.08
2023-05-07T10:40:24.849Z,1.10
2023-05-07T10:43:00.843Z,0.75
2023-05-07T10:45:33.641Z,0.50
2023-05-07T10:50:49.859Z,0.82
2023-05-07T10:53:31.559Z,0.75
2023-05-07T10:56:32.197Z,1.05
2023-05-07T10:59:44.953Z,0.93
2023-05-07T11:02:17.486Z,0.77
2023-05-07T11:04:48.381Z,1.02
2023-05-07T11:07:33.536Z,1.00
2023-05-07T11:10:09.508Z,0.80
2023-05-07T11:12:57.687Z,0.85
2023-05-07T11:15:49.405Z,0.68
2023-05-07T11:18:22.270Z,0.90
2023-05-07T11:21:01.960Z,0.82
2023-05-07T11:24:12.194Z,0.90
2023-05-07T11:26:51.218Z,0.90
2023-05-07T11:29:23.776Z,0.80
2023-05-07T11:31:55.647Z,0.80
2023-05-07T11:34:29.163Z,0.80
2023-05-07T11:37:03.912Z,0.70
2023-05-07T11:39:38.436Z,0.98
2023-05-07T11:42:11.170Z,0.63
2023-05-07T11:44:49.676Z,1.05
2023-05-07T11:47:22.502Z,0.75
2023-05-07T11:49:57.404Z,0.77
2023-05-07T11:52:28.521Z,0.88
2023-05-07T11:55:01.041Z,0.95
2023-05-07T11:57:32.165Z,0.80
2023-05-07T12:00:06.162Z,0.85
2023-05-07T12:02:36.959Z,0.60
2023-05-07T12:05:10.701Z,0.70
2023-05-07T12:07:41.581Z,0.68
2023-05-07T12:10:14.692Z,0.52
2023-05-07T12:12:49.004Z,0.73
2023-05-07T12:15:20.620Z,0.63
2023-05-07T12:17:52.199Z,0.75
2023-05-07T12:20:24.552Z,1.00
2023-05-07T12:22:55.910Z,1.00
2023-05-07T12:25:26.812Z,0.90
2023-05-07T12:27:57.550Z,0.77
2023-05-07T12:30:27.819Z,0.82
2023-05-07T12:32:58.939Z,0.90
2023-05-07T12:35:40.992Z,0.85
2023-05-07T12:38:13.634Z,0.80
2023-05-07T12:40:46.654Z,0.90
2023-05-07T12:43:20.829Z,0.93
2023-05-07T12:45:54.185Z,1.10
2023-05-07T12:48:25.362Z,0.95
2023-05-07T12:50:58.023Z,0.80
2023-05-07T12:53:30.669Z,0.68
2023-05-07T12:56:02.997Z,0.77
2023-05-07T12:58:37.995Z,0.52
2023-05-07T13:01:12.501Z,0.50
2023-05-07T13:03:43.254Z,0.70
2023-05-07T13:06:15.779Z,0.60
2023-05-07T13:08:46.660Z,0.60
2023-05-07T13:11:17.495Z,0.50
2023-05-07T13:13:48.001Z,0.88
2023-05-07T13:18:52.433Z,0.77
2023-05-07T13:21:24.114Z,0.65
2023-05-07T13:23:54.869Z,0.85
2023-05-07T13:26:26.723Z,0.75
2023-05-07T13:28:58.159Z,0.75
2023-05-07T13:31:28.821Z,0.60
2023-05-07T13:33:59.278Z,0.50
2023-05-07T13:36:34.505Z,0.63
2023-05-07T13:39:04.877Z,0.77
2023-05-07T13:41:35.314Z,0.60
2023-05-07T13:44:06.034Z,0.60
2023-05-07T13:46:36.628Z,0.70
2023-05-07T13:49:06.976Z,0.65
2023-05-07T13:51:38.785Z,0.50
2023-05-07T13:54:09.526Z,0.43
2023-05-07T13:56:40.139Z,0.60
2023-05-07T13:59:10.611Z,0.60
2023-05-07T14:01:41.299Z,0.57
2023-05-07T14:04:12.096Z,0.55
2023-05-07T14:06:45.008Z,0.50
2023-05-07T14:09:15.575Z,0.70
2023-05-07T14:11:46.193Z,0.70
2023-05-07T14:14:17.290Z,0.75
2023-05-07T14:16:49.416Z,0.38
2023-05-07T14:19:20.657Z,0.70
2023-05-07T14:21:53.380Z,0.30
2023-05-07T14:24:37.079Z,0.52
2023-05-07T14:27:08.733Z,0.40
2023-05-07T14:29:38.679Z,0.60
2023-05-07T14:32:09.433Z,0.57
2023-05-07T14:34:39.939Z,0.60
2023-05-07T14:37:12.446Z,0.60
2023-05-07T14:39:42.935Z,0.75
2023-05-07T14:42:13.866Z,0.70
2023-05-07T14:44:46.199Z,0.70
2023-05-07T14:47:19.926Z,0.50
2023-05-07T14:49:50.952Z,0.73
2023-05-07T14:52:22.900Z,0.73
2023-05-07T14:54:52.961Z,0.88
2023-05-07T14:57:23.598Z,0.75
2023-05-07T14:59:53.991Z,0.88
2023-05-07T15:02:24.654Z,0.80
2023-05-07T15:04:55.222Z,0.70
2023-05-07T15:07:27.828Z,0.70
2023-05-07T15:09:58.851Z,0.80
2023-05-07T15:12:29.222Z,0.80
2023-05-07T15:14:59.720Z,0.70
2023-05-07T15:17:30.255Z,0.60
2023-05-07T15:20:00.945Z,0.70
2023-05-07T15:22:33.838Z,0.85
2023-05-07T15:25:03.889Z,0.60
2023-05-07T15:27:34.447Z,0.82
2023-05-07T15:30:05.229Z,0.80
2023-05-07T15:32:35.829Z,0.90
2023-05-07T15:35:06.569Z,0.70
2023-05-07T15:37:38.997Z,0.80
2023-05-07T15:40:12.037Z,0.63
2023-05-07T15:42:42.100Z,0.80
2023-05-07T15:45:14.218Z,0.63
2023-05-07T15:47:44.967Z,0.60
2023-05-07T15:50:15.224Z,0.68
2023-05-07T15:52:49.573Z,0.60
2023-05-07T15:55:19.996Z,0.50
2023-05-07T15:57:50.122Z,0.80
2023-05-07T16:00:21.322Z,0.70
2023-05-07T16:02:52.047Z,0.82
2023-05-07T16:05:22.723Z,0.85
2023-05-07T16:07:54.940Z,0.70
2023-05-07T16:10:25.842Z,0.85
2023-05-07T16:12:56.249Z,0.90
2023-05-07T16:15:26.862Z,1.08
2023-05-07T16:17:58.543Z,1.10
2023-05-07T16:20:31.960Z,1.08
2023-05-07T16:23:04.489Z,1.10
2023-05-07T16:25:34.888Z,1.20
2023-05-07T16:28:04.664Z,1.13
2023-05-07T16:30:35.179Z,1.52
2023-05-07T16:33:05.795Z,1.40
2023-05-07T16:35:36.054Z,1.35
2023-05-07T16:38:10.684Z,1.20
2023-05-07T16:40:42.424Z,0.80
2023-05-07T16:43:14.134Z,1.00
2023-05-07T16:45:44.773Z,0.98
2023-05-07T16:48:15.131Z,0.70
2023-05-07T16:50:45.855Z,0.90
2023-05-07T16:53:17.768Z,0.90
2023-05-07T16:55:48.071Z,0.85
2023-05-07T16:58:18.581Z,0.80
2023-05-07T17:00:50.946Z,0.82
2023-05-07T17:03:21.838Z,0.90
2023-05-07T17:05:52.694Z,0.93
2023-05-07T17:08:24.856Z,0.95
2023-05-07T17:10:54.854Z,0.90
2023-05-07T17:13:25.728Z,1.10
2023-05-07T17:15:56.134Z,0.90
2023-05-07T17:18:26.627Z,0.98
2023-05-07T17:20:57.151Z,0.90
2023-05-07T17:23:30.616Z,1.02
2023-05-07T17:26:01.146Z,0.77
2023-05-07T17:28:32.152Z,1.13
2023-05-07T17:31:02.593Z,0.75
2023-05-07T17:33:33.084Z,1.00
2023-05-07T17:36:04.078Z,0.93
2023-05-07T17:38:36.633Z,0.75
2023-05-07T17:41:07.042Z,0.90
2023-05-07T17:43:36.726Z,1.13
2023-05-07T17:46:06.385Z,0.98
2023-05-07T17:48:36.132Z,0.68
2023-05-07T17:51:06.937Z,0.90
2023-05-07T17:53:38.954Z,1.10
2023-05-07T17:56:09.372Z,0.80
2023-05-07T17:58:56.179Z,1.00
2023-05-07T18:01:29.389Z,1.05
2023-05-07T18:03:59.886Z,0.75
2023-05-07T18:06:30.728Z,1.00
2023-05-07T18:09:02.764Z,0.80
2023-05-07T18:11:33.912Z,0.90
2023-05-07T18:14:03.779Z,0.80
2023-05-07T18:16:34.625Z,1.00
2023-05-07T18:19:06.212Z,0.80
2023-05-07T18:21:36.363Z,0.98
2023-05-07T18:24:09.257Z,0.90
2023-05-07T18:26:39.678Z,0.75
2023-05-07T18:29:10.025Z,0.88
2023-05-07T18:31:40.580Z,0.88
2023-05-07T18:34:11.008Z,0.73
2023-05-07T18:36:41.617Z,0.80
2023-05-07T18:39:13.666Z,0.93
2023-05-07T18:41:45.538Z,0.90
2023-05-07T18:44:15.708Z,0.80
2023-05-07T18:46:48.179Z,0.90
2023-05-07T18:49:18.189Z,0.95
2023-05-07T18:51:48.450Z,0.70
2023-05-07T18:54:21.072Z,0.90
2023-05-07T18:56:52.025Z,0.70
2023-05-07T18:59:22.883Z,1.00
2023-05-07T19:01:53.435Z,0.82
2023-05-07T19:04:24.923Z,0.95
2023-05-07T19:06:55.454Z,0.80
2023-05-07T19:09:27.994Z,1.00
2023-05-07T19:11:59.227Z,1.05
2023-05-07T19:14:29.534Z,1.08
2023-05-07T19:16:59.217Z,1.00
2023-05-07T19:19:30.044Z,1.00
2023-05-07T19:22:00.188Z,1.00
2023-05-07T19:24:33.588Z,1.00
2023-05-07T19:27:04.022Z,0.77
2023-05-07T19:29:34.465Z,0.70
2023-05-07T19:32:05.240Z,0.70
2023-05-07T19:34:36.206Z,0.80
2023-05-07T19:37:06.857Z,0.90
2023-05-07T19:39:38.677Z,0.98
2023-05-07T19:42:08.705Z,1.00
2023-05-07T19:44:38.847Z,0.98
2023-05-07T19:47:09.676Z,0.88
2023-05-07T19:49:40.390Z,0.95
2023-05-07T19:52:10.761Z,0.80
2023-05-07T19:54:43.036Z,0.77
2023-05-07T19:57:13.432Z,0.82
2023-05-07T19:59:43.482Z,1.00
2023-05-07T20:02:14.440Z,0.77
2023-05-07T20:04:44.599Z,0.82
2023-05-07T20:07:15.093Z,0.90
2023-05-07T20:09:47.468Z,0.82
2023-05-07T20:12:18.450Z,0.93
2023-05-07T20:14:48.258Z,0.80
2023-05-07T20:17:20.048Z,0.65
2023-05-07T20:19:50.088Z,0.80
2023-05-07T20:22:20.257Z,1.08
2023-05-07T20:24:52.256Z,0.68
2023-05-07T20:27:25.188Z,1.00
2023-05-07T20:29:56.133Z,0.77
2023-05-07T20:32:26.976Z,0.80
2023-05-07T20:34:57.189Z,1.08
2023-05-07T20:37:27.778Z,0.98
2023-05-07T20:39:59.779Z,0.90
2023-05-07T20:42:30.285Z,0.98
2023-05-07T20:45:02.153Z,0.98
2023-05-07T20:47:35.127Z,1.00
2023-05-07T20:50:05.383Z,0.90
2023-05-07T20:52:35.729Z,1.10
2023-05-07T20:55:09.501Z,0.90
2023-05-07T20:57:40.296Z,0.90
2023-05-07T21:00:13.026Z,0.90
2023-05-07T21:02:43.630Z,1.00
2023-05-07T21:05:14.224Z,1.33
2023-05-07T21:07:44.496Z,1.00
2023-05-07T21:10:16.288Z,0.80
2023-05-07T21:12:46.280Z,0.88
2023-05-07T21:15:16.243Z,1.10
2023-05-07T21:17:46.604Z,1.20
2023-05-07T21:20:17.116Z,0.90
2023-05-07T21:22:46.985Z,1.20
2023-05-07T21:25:25.566Z,1.00
2023-05-07T21:27:55.378Z,1.10
2023-05-07T21:30:26.045Z,1.00
2023-05-07T21:32:56.581Z,0.93
2023-05-07T21:35:26.952Z,1.00
2023-05-07T21:37:56.909Z,0.93
2023-05-07T21:40:28.467Z,0.90
2023-05-07T21:42:58.591Z,1.05
2023-05-07T21:45:29.014Z,1.00
2023-05-07T21:48:00.144Z,1.02
2023-05-07T21:50:30.650Z,1.00
2023-05-07T21:53:00.685Z,1.27
2023-05-07T21:55:33.458Z,0.80
2023-05-07T21:58:06.020Z,1.40
2023-05-07T22:00:36.419Z,0.82
2023-05-07T22:03:06.205Z,0.70
2023-05-07T22:05:36.246Z,1.20
2023-05-07T22:08:07.547Z,0.90
2023-05-07T22:10:40.035Z,1.00
2023-05-07T22:13:10.269Z,1.30
2023-05-07T22:15:49.594Z,1.20
2023-05-07T22:18:26.917Z,1.13
2023-05-07T22:20:56.777Z,1.30
2023-05-07T22:23:27.141Z,1.20
2023-05-07T22:25:59.466Z,1.20
2023-05-07T22:28:29.797Z,1.30
2023-05-07T22:31:00.223Z,1.25
2023-05-07T22:33:30.995Z,1.30
2023-05-07T22:36:01.354Z,1.20
2023-05-07T22:38:31.510Z,1.10
2023-05-07T22:41:03.681Z,1.40
2023-05-07T22:43:34.699Z,1.35
2023-05-07T22:46:05.276Z,1.25
2023-05-07T22:48:36.097Z,1.23
2023-05-07T22:51:06.786Z,1.15
2023-05-07T22:53:36.710Z,1.30
2023-05-07T22:56:11.123Z,1.35
2023-05-07T22:58:41.873Z,1.40
2023-05-07T23:01:16.494Z,1.20
2023-05-07T23:03:46.946Z,1.40
2023-05-07T23:06:17.254Z,1.48
2023-05-07T23:08:50.473Z,1.50
2023-05-07T23:11:23.079Z,1.30
2023-05-07T23:13:53.511Z,1.10
2023-05-07T23:16:23.671Z,1.42
2023-05-07T23:18:54.070Z,1.50
2023-05-07T23:21:25.006Z,1.33
2023-05-07T23:23:55.519Z,1.40
2023-05-07T23:26:30.066Z,1.42
2023-05-07T23:29:00.494Z,1.50
2023-05-07T23:31:31.451Z,1.30
2023-05-07T23:34:01.254Z,1.13
2023-05-07T23:36:31.786Z,1.30
2023-05-07T23:39:01.711Z,1.35
2023-05-07T23:41:33.745Z,1.42
2023-05-07T23:44:04.198Z,1.60
2023-05-07T23:46:34.263Z,1.55
2023-05-07T23:49:04.190Z,1.40
2023-05-07T23:51:34.320Z,1.63
2023-05-07T23:54:04.546Z,1.35
2023-05-07T23:56:36.329Z,1.60
2023-05-07T23:59:06.703Z,1.60
